sensor_id;sensor_type;location;lat;lon;timestamp;temperature;humidity
11399;DHT22;5755;48.116;11.608;2023-09-08T00:01:57;15.10;99.90
11399;DHT22;5755;48.116;11.608;2023-09-08T00:04:24;14.90;99.90
11399;DHT22;5755;48.116;11.608;2023-09-08T00:06:55;14.90;99.90
11399;DHT22;5755;48.116;11.608;2023-09-08T00:09:36;14.80;99.90
11399;DHT22;5755;48.116;11.608;2023-09-08T00:12:03;14.70;99.90
11399;DHT22;5755;48.116;11.608;2023-09-08T00:14:44;14.70;99.90
11399;DHT22;5755;48.116;11.608;2023-09-08T00:17:11;14.70;99.90
11399;DHT22;5755;48.116;11.608;2023-09-08T00:19:38;14.70;99.90
11399;DHT22;5755;48.116;11.608;2023-09-08T00:22:06;14.60;99.90
11399;DHT22;5755;48.116;11.608;2023-09-08T00:24:54;14.50;99.90
11399;DHT22;5755;48.116;11.608;2023-09-08T00:27:21;14.50;99.90
11399;DHT22;5755;48.116;11.608;2023-09-08T00:29:48;14.70;99.90
11399;DHT22;5755;48.116;11.608;2023-09-08T00:32:16;14.80;99.90
11399;DHT22;5755;48.116;11.608;2023-09-08T00:34:56;14.80;99.90
11399;DHT22;5755;48.116;11.608;2023-09-08T00:37:25;14.90;99.90
11399;DHT22;5755;48.116;11.608;2023-09-08T00:40:07;14.90;99.90
11399;DHT22;5755;48.116;11.608;2023-09-08T00:42:48;15.00;99.90
11399;DHT22;5755;48.116;11.608;2023-09-08T00:45:15;15.00;99.90
11399;DHT22;5755;48.116;11.608;2023-09-08T00:47:42;14.90;99.90
11399;DHT22;5755;48.116;11.608;2023-09-08T00:50:09;14.70;99.90
11399;DHT22;5755;48.116;11.608;2023-09-08T00:52:37;14.50;99.90
11399;DHT22;5755;48.116;11.608;2023-09-08T00:55:27;14.50;99.90
11399;DHT22;5755;48.116;11.608;2023-09-08T00:57:53;14.40;99.90
11399;DHT22;5755;48.116;11.608;2023-09-08T01:00:20;14.40;99.90
11399;DHT22;5755;48.116;11.608;2023-09-08T01:02:47;14.50;99.90
11399;DHT22;5755;48.116;11.608;2023-09-08T01:05:14;14.40;99.90
11399;DHT22;5755;48.116;11.608;2023-09-08T01:07:44;14.40;99.90
11399;DHT22;5755;48.116;11.608;2023-09-08T01:10:13;14.40;99.90
11399;DHT22;5755;48.116;11.608;2023-09-08T01:12:40;14.30;99.90
11399;DHT22;5755;48.116;11.608;2023-09-08T01:15:08;14.20;99.90
11399;DHT22;5755;48.116;11.608;2023-09-08T01:17:35;14.20;99.90
11399;DHT22;5755;48.116;11.608;2023-09-08T01:20:13;14.20;99.90
11399;DHT22;5755;48.116;11.608;2023-09-08T01:23:03;14.10;99.90
11399;DHT22;5755;48.116;11.608;2023-09-08T01:26:03;14.00;99.90
11399;DHT22;5755;48.116;11.608;2023-09-08T01:29:09;14.00;99.90
11399;DHT22;5755;48.116;11.608;2023-09-08T01:31:59;13.90;99.90
11399;DHT22;5755;48.116;11.608;2023-09-08T01:34:26;13.90;99.90
11399;DHT22;5755;48.116;11.608;2023-09-08T01:36:53;14.00;99.90
11399;DHT22;5755;48.116;11.608;2023-09-08T01:39:20;14.00;99.90
11399;DHT22;5755;48.116;11.608;2023-09-08T01:41:48;14.00;99.90
11399;DHT22;5755;48.116;11.608;2023-09-08T01:44:15;14.00;99.90
11399;DHT22;5755;48.116;11.608;2023-09-08T01:46:42;13.90;99.90
11399;DHT22;5755;48.116;11.608;2023-09-08T01:49:23;13.80;99.90
11399;DHT22;5755;48.116;11.608;2023-09-08T01:51:50;13.80;99.90
11399;DHT22;5755;48.116;11.608;2023-09-08T01:54:17;13.80;99.90
11399;DHT22;5755;48.116;11.608;2023-09-08T01:56:44;13.70;99.90
11399;DHT22;5755;48.116;11.608;2023-09-08T01:59:12;13.70;99.90
11399;DHT22;5755;48.116;11.608;2023-09-08T02:01:39;13.70;99.90
11399;DHT22;5755;48.116;11.608;2023-09-08T02:04:06;13.80;99.90
11399;DHT22;5755;48.116;11.608;2023-09-08T02:06:33;13.90;99.90
11399;DHT22;5755;48.116;11.608;2023-09-08T02:09:00;13.90;99.90
11399;DHT22;5755;48.116;11.608;2023-09-08T02:11:27;13.70;99.90
11399;DHT22;5755;48.116;11.608;2023-09-08T02:13:54;13.60;99.90
11399;DHT22;5755;48.116;11.608;2023-09-08T02:16:23;13.60;99.90
11399;DHT22;5755;48.116;11.608;2023-09-08T02:18:50;13.50;99.90
11399;DHT22;5755;48.116;11.608;2023-09-08T02:21:17;13.40;99.90
11399;DHT22;5755;48.116;11.608;2023-09-08T02:23:44;13.40;99.90
11399;DHT22;5755;48.116;11.608;2023-09-08T02:26:11;13.40;99.90
11399;DHT22;5755;48.116;11.608;2023-09-08T02:28:38;13.40;99.90
11399;DHT22;5755;48.116;11.608;2023-09-08T02:31:05;13.50;99.90
11399;DHT22;5755;48.116;11.608;2023-09-08T02:33:33;13.50;99.90
11399;DHT22;5755;48.116;11.608;2023-09-08T02:36:04;13.40;99.90
11399;DHT22;5755;48.116;11.608;2023-09-08T02:38:45;13.40;99.90
11399;DHT22;5755;48.116;11.608;2023-09-08T02:41:12;13.40;99.90
11399;DHT22;5755;48.116;11.608;2023-09-08T02:43:41;13.40;99.90
11399;DHT22;5755;48.116;11.608;2023-09-08T02:46:07;13.40;99.90
11399;DHT22;5755;48.116;11.608;2023-09-08T02:48:37;13.30;99.90
11399;DHT22;5755;48.116;11.608;2023-09-08T02:51:18;13.40;99.90
11399;DHT22;5755;48.116;11.608;2023-09-08T02:53:45;13.50;99.90
11399;DHT22;5755;48.116;11.608;2023-09-08T02:56:12;13.50;99.90
11399;DHT22;5755;48.116;11.608;2023-09-08T02:58:38;13.40;99.90
11399;DHT22;5755;48.116;11.608;2023-09-08T03:01:12;13.30;99.90
11399;DHT22;5755;48.116;11.608;2023-09-08T03:03:55;13.20;99.90
11399;DHT22;5755;48.116;11.608;2023-09-08T03:06:36;13.10;99.90
11399;DHT22;5755;48.116;11.608;2023-09-08T03:09:03;13.10;99.90
11399;DHT22;5755;48.116;11.608;2023-09-08T03:11:30;13.00;99.90
11399;DHT22;5755;48.116;11.608;2023-09-08T03:13:58;13.00;99.90
11399;DHT22;5755;48.116;11.608;2023-09-08T03:16:25;13.10;99.90
11399;DHT22;5755;48.116;11.608;2023-09-08T03:18:52;13.00;99.90
11399;DHT22;5755;48.116;11.608;2023-09-08T03:21:23;13.00;99.90
11399;DHT22;5755;48.116;11.608;2023-09-08T03:24:05;12.90;99.90
11399;DHT22;5755;48.116;11.608;2023-09-08T03:26:32;13.00;99.90
11399;DHT22;5755;48.116;11.608;2023-09-08T03:28:59;13.00;99.90
11399;DHT22;5755;48.116;11.608;2023-09-08T03:31:26;13.00;99.90
11399;DHT22;5755;48.116;11.608;2023-09-08T03:33:53;13.00;99.90
11399;DHT22;5755;48.116;11.608;2023-09-08T03:36:21;12.90;99.90
11399;DHT22;5755;48.116;11.608;2023-09-08T03:39:03;12.90;99.90
11399;DHT22;5755;48.116;11.608;2023-09-08T03:41:29;12.90;99.90
11399;DHT22;5755;48.116;11.608;2023-09-08T03:43:56;12.90;99.90
11399;DHT22;5755;48.116;11.608;2023-09-08T03:46:26;12.90;99.90
11399;DHT22;5755;48.116;11.608;2023-09-08T03:48:53;12.90;99.90
11399;DHT22;5755;48.116;11.608;2023-09-08T03:51:28;12.80;99.90
11399;DHT22;5755;48.116;11.608;2023-09-08T03:54:08;12.80;99.90
11399;DHT22;5755;48.116;11.608;2023-09-08T03:56:35;12.80;99.90
11399;DHT22;5755;48.116;11.608;2023-09-08T03:59:04;12.80;99.90
11399;DHT22;5755;48.116;11.608;2023-09-08T04:01:31;12.70;99.90
11399;DHT22;5755;48.116;11.608;2023-09-08T04:03:58;12.80;99.90
11399;DHT22;5755;48.116;11.608;2023-09-08T04:06:27;12.90;99.90
11399;DHT22;5755;48.116;11.608;2023-09-08T04:09:03;13.00;99.90
11399;DHT22;5755;48.116;11.608;2023-09-08T04:11:30;13.00;99.90
11399;DHT22;5755;48.116;11.608;2023-09-08T04:13:57;13.10;99.90
11399;DHT22;5755;48.116;11.608;2023-09-08T04:16:26;13.00;99.90
11399;DHT22;5755;48.116;11.608;2023-09-08T04:18:52;12.90;99.90
11399;DHT22;5755;48.116;11.608;2023-09-08T04:21:20;12.80;99.90
11399;DHT22;5755;48.116;11.608;2023-09-08T04:23:49;12.70;99.90
11399;DHT22;5755;48.116;11.608;2023-09-08T04:26:30;12.70;99.90
11399;DHT22;5755;48.116;11.608;2023-09-08T04:28:57;12.70;99.90
11399;DHT22;5755;48.116;11.608;2023-09-08T04:31:24;12.70;99.90
11399;DHT22;5755;48.116;11.608;2023-09-08T04:33:53;12.70;99.90
11399;DHT22;5755;48.116;11.608;2023-09-08T04:36:20;12.70;99.90
11399;DHT22;5755;48.116;11.608;2023-09-08T04:38:49;12.70;99.90
11399;DHT22;5755;48.116;11.608;2023-09-08T04:41:31;12.60;99.90
11399;DHT22;5755;48.116;11.608;2023-09-08T04:44:01;12.60;99.90
11399;DHT22;5755;48.116;11.608;2023-09-08T04:46:28;12.50;99.90
11399;DHT22;5755;48.116;11.608;2023-09-08T04:48:55;12.50;99.90
11399;DHT22;5755;48.116;11.608;2023-09-08T04:51:24;12.50;99.90
11399;DHT22;5755;48.116;11.608;2023-09-08T04:53:53;12.60;99.90
11399;DHT22;5755;48.116;11.608;2023-09-08T04:56:20;12.50;99.90
11399;DHT22;5755;48.116;11.608;2023-09-08T04:58:47;12.60;99.90
11399;DHT22;5755;48.116;11.608;2023-09-08T05:01:14;12.70;99.90
11399;DHT22;5755;48.116;11.608;2023-09-08T05:03:41;12.90;99.90
11399;DHT22;5755;48.116;11.608;2023-09-08T05:06:08;12.90;99.90
11399;DHT22;5755;48.116;11.608;2023-09-08T05:08:36;12.80;99.90
11399;DHT22;5755;48.116;11.608;2023-09-08T05:11:04;12.80;99.90
11399;DHT22;5755;48.116;11.608;2023-09-08T05:13:31;13.00;99.90
11399;DHT22;5755;48.116;11.608;2023-09-08T05:15:58;13.00;99.90
11399;DHT22;5755;48.116;11.608;2023-09-08T05:18:46;13.10;99.90
11399;DHT22;5755;48.116;11.608;2023-09-08T05:21:13;13.30;99.90
11399;DHT22;5755;48.116;11.608;2023-09-08T05:23:43;13.20;99.90
11399;DHT22;5755;48.116;11.608;2023-09-08T05:26:12;13.10;99.90
11399;DHT22;5755;48.116;11.608;2023-09-08T05:28:39;13.20;99.90
11399;DHT22;5755;48.116;11.608;2023-09-08T05:31:06;13.40;99.90
11399;DHT22;5755;48.116;11.608;2023-09-08T05:33:33;13.80;99.90
11399;DHT22;5755;48.116;11.608;2023-09-08T05:36:01;13.90;99.90
11399;DHT22;5755;48.116;11.608;2023-09-08T05:38:27;14.20;99.90
11399;DHT22;5755;48.116;11.608;2023-09-08T05:40:54;14.30;99.90
11399;DHT22;5755;48.116;11.608;2023-09-08T05:43:24;14.30;99.90
11399;DHT22;5755;48.116;11.608;2023-09-08T05:45:51;14.50;99.90
11399;DHT22;5755;48.116;11.608;2023-09-08T05:48:18;14.60;99.90
11399;DHT22;5755;48.116;11.608;2023-09-08T05:50:45;14.70;99.90
11399;DHT22;5755;48.116;11.608;2023-09-08T05:53:12;14.70;99.90
11399;DHT22;5755;48.116;11.608;2023-09-08T05:55:39;14.60;99.90
11399;DHT22;5755;48.116;11.608;2023-09-08T05:58:06;14.70;99.90
11399;DHT22;5755;48.116;11.608;2023-09-08T06:00:35;14.60;99.90
11399;DHT22;5755;48.116;11.608;2023-09-08T06:03:28;14.40;99.90
11399;DHT22;5755;48.116;11.608;2023-09-08T06:05:55;14.40;99.90
11399;DHT22;5755;48.116;11.608;2023-09-08T06:08:22;14.30;99.90
11399;DHT22;5755;48.116;11.608;2023-09-08T06:10:52;14.30;99.90
11399;DHT22;5755;48.116;11.608;2023-09-08T06:13:18;14.60;99.90
11399;DHT22;5755;48.116;11.608;2023-09-08T06:15:47;14.60;99.90
11399;DHT22;5755;48.116;11.608;2023-09-08T06:18:14;14.80;99.90
11399;DHT22;5755;48.116;11.608;2023-09-08T06:20:45;15.10;99.90
11399;DHT22;5755;48.116;11.608;2023-09-08T06:23:12;15.30;99.90
11399;DHT22;5755;48.116;11.608;2023-09-08T06:25:41;15.30;99.90
11399;DHT22;5755;48.116;11.608;2023-09-08T06:28:08;15.50;99.90
11399;DHT22;5755;48.116;11.608;2023-09-08T06:30:35;15.60;99.90
11399;DHT22;5755;48.116;11.608;2023-09-08T06:33:04;15.70;99.90
11399;DHT22;5755;48.116;11.608;2023-09-08T06:35:31;15.80;99.90
11399;DHT22;5755;48.116;11.608;2023-09-08T06:37:59;15.80;99.90
11399;DHT22;5755;48.116;11.608;2023-09-08T06:40:26;15.80;99.90
11399;DHT22;5755;48.116;11.608;2023-09-08T06:42:53;15.90;99.90
11399;DHT22;5755;48.116;11.608;2023-09-08T06:45:20;15.90;99.90
11399;DHT22;5755;48.116;11.608;2023-09-08T06:47:47;16.00;99.90
11399;DHT22;5755;48.116;11.608;2023-09-08T07:16:38;17.30;99.90
11399;DHT22;5755;48.116;11.608;2023-09-08T07:19:05;17.40;99.90
11399;DHT22;5755;48.116;11.608;2023-09-08T07:21:35;17.40;99.90
11399;DHT22;5755;48.116;11.608;2023-09-08T07:39:36;18.20;98.20
11399;DHT22;5755;48.116;11.608;2023-09-08T07:42:03;18.30;98.40
11399;DHT22;5755;48.116;11.608;2023-09-08T07:44:30;18.40;98.20
11399;DHT22;5755;48.116;11.608;2023-09-08T07:46:57;18.50;97.70
11399;DHT22;5755;48.116;11.608;2023-09-08T07:49:24;18.60;97.80
11399;DHT22;5755;48.116;11.608;2023-09-08T07:51:51;18.70;97.20
11399;DHT22;5755;48.116;11.608;2023-09-08T07:54:18;18.90;97.10
11399;DHT22;5755;48.116;11.608;2023-09-08T07:56:46;19.00;96.50
11399;DHT22;5755;48.116;11.608;2023-09-08T07:59:13;19.20;96.50
11399;DHT22;5755;48.116;11.608;2023-09-08T08:01:40;19.30;95.80
11399;DHT22;5755;48.116;11.608;2023-09-08T08:07:25;19.50;95.30
11399;DHT22;5755;48.116;11.608;2023-09-08T08:09:53;19.50;95.20
11399;DHT22;5755;48.116;11.608;2023-09-08T08:15:59;19.70;95.20
11399;DHT22;5755;48.116;11.608;2023-09-08T08:18:26;20.00;93.70
11399;DHT22;5755;48.116;11.608;2023-09-08T08:20:53;20.00;93.50
11399;DHT22;5755;48.116;11.608;2023-09-08T08:23:27;20.00;93.60
11399;DHT22;5755;48.116;11.608;2023-09-08T08:25:54;20.00;93.80
11399;DHT22;5755;48.116;11.608;2023-09-08T08:28:21;20.10;93.60
11399;DHT22;5755;48.116;11.608;2023-09-08T08:30:49;20.10;93.50
11399;DHT22;5755;48.116;11.608;2023-09-08T08:33:18;20.40;92.70
11399;DHT22;5755;48.116;11.608;2023-09-08T08:36:00;20.70;92.80
11399;DHT22;5755;48.116;11.608;2023-09-08T08:38:29;20.90;92.30
11399;DHT22;5755;48.116;11.608;2023-09-08T08:41:02;20.90;92.90
11399;DHT22;5755;48.116;11.608;2023-09-08T08:43:43;21.00;91.80
11399;DHT22;5755;48.116;11.608;2023-09-08T08:46:13;21.00;92.10
11399;DHT22;5755;48.116;11.608;2023-09-08T08:48:48;21.20;92.20
11399;DHT22;5755;48.116;11.608;2023-09-08T08:51:38;21.60;91.00
11399;DHT22;5755;48.116;11.608;2023-09-08T08:54:08;21.80;89.70
11399;DHT22;5755;48.116;11.608;2023-09-08T08:56:37;21.80;88.70
11399;DHT22;5755;48.116;11.608;2023-09-08T08:59:05;21.90;89.50
11399;DHT22;5755;48.116;11.608;2023-09-08T09:01:32;22.30;86.20
11399;DHT22;5755;48.116;11.608;2023-09-08T09:04:01;23.40;80.60
11399;DHT22;5755;48.116;11.608;2023-09-08T09:06:31;25.00;65.60
11399;DHT22;5755;48.116;11.608;2023-09-08T09:08:59;26.90;42.70
11399;DHT22;5755;48.116;11.608;2023-09-08T09:11:26;28.20;28.70
11399;DHT22;5755;48.116;11.608;2023-09-08T09:13:54;29.40;20.50
11399;DHT22;5755;48.116;11.608;2023-09-08T09:16:22;30.90;17.10
11399;DHT22;5755;48.116;11.608;2023-09-08T09:18:55;31.30;17.00
11399;DHT22;5755;48.116;11.608;2023-09-08T09:21:45;31.80;15.00
11399;DHT22;5755;48.116;11.608;2023-09-08T09:24:30;32.30;13.20
11399;DHT22;5755;48.116;11.608;2023-09-08T09:27:12;32.20;14.20
11399;DHT22;5755;48.116;11.608;2023-09-08T09:29:58;32.30;13.30
11399;DHT22;5755;48.116;11.608;2023-09-08T09:32:39;33.20;10.60
11399;DHT22;5755;48.116;11.608;2023-09-08T09:35:07;34.20;9.10
11399;DHT22;5755;48.116;11.608;2023-09-08T09:40:58;34.10;9.00
11399;DHT22;5755;48.116;11.608;2023-09-08T09:43:40;33.20;10.30
11399;DHT22;5755;48.116;11.608;2023-09-08T09:46:23;32.80;11.20
11399;DHT22;5755;48.116;11.608;2023-09-08T09:49:41;31.90;12.40
11399;DHT22;5755;48.116;11.608;2023-09-08T09:52:29;30.90;15.50
11399;DHT22;5755;48.116;11.608;2023-09-08T09:59:02;32.70;10.40
11399;DHT22;5755;48.116;11.608;2023-09-08T10:01:51;31.60;13.80
11399;DHT22;5755;48.116;11.608;2023-09-08T10:04:29;31.00;15.70
11399;DHT22;5755;48.116;11.608;2023-09-08T10:07:47;31.70;14.20
11399;DHT22;5755;48.116;11.608;2023-09-08T10:10:15;31.50;14.20
11399;DHT22;5755;48.116;11.608;2023-09-08T10:12:52;31.90;13.10
11399;DHT22;5755;48.116;11.608;2023-09-08T10:15:22;31.80;13.20
11399;DHT22;5755;48.116;11.608;2023-09-08T10:18:07;32.40;12.90
11399;DHT22;5755;48.116;11.608;2023-09-08T10:21:13;31.20;14.60
11399;DHT22;5755;48.116;11.608;2023-09-08T10:24:01;30.70;16.20
11399;DHT22;5755;48.116;11.608;2023-09-08T10:26:51;31.10;15.70
11399;DHT22;5755;48.116;11.608;2023-09-08T10:29:23;31.20;15.30
11399;DHT22;5755;48.116;11.608;2023-09-08T10:32:18;31.30;15.70
11399;DHT22;5755;48.116;11.608;2023-09-08T10:35:07;30.80;17.10
11399;DHT22;5755;48.116;11.608;2023-09-08T10:37:34;30.10;19.00
11399;DHT22;5755;48.116;11.608;2023-09-08T10:53:41;29.80;18.50
11399;DHT22;5755;48.116;11.608;2023-09-08T10:56:08;30.80;15.70
11399;DHT22;5755;48.116;11.608;2023-09-08T10:58:37;31.30;15.70
11399;DHT22;5755;48.116;11.608;2023-09-08T11:01:20;30.50;16.90
11399;DHT22;5755;48.116;11.608;2023-09-08T11:24:40;28.50;20.80
11399;DHT22;5755;48.116;11.608;2023-09-08T11:30:40;28.40;21.00
11399;DHT22;5755;48.116;11.608;2023-09-08T11:33:13;28.40;21.40
11399;DHT22;5755;48.116;11.608;2023-09-08T11:35:42;28.10;21.70
11399;DHT22;5755;48.116;11.608;2023-09-08T11:38:31;27.90;21.10
11399;DHT22;5755;48.116;11.608;2023-09-08T11:41:12;28.10;20.90
11399;DHT22;5755;48.116;11.608;2023-09-08T11:43:57;28.30;20.90
11399;DHT22;5755;48.116;11.608;2023-09-08T11:46:38;28.40;19.30
11399;DHT22;5755;48.116;11.608;2023-09-08T11:49:23;28.40;19.50
11399;DHT22;5755;48.116;11.608;2023-09-08T11:52:07;28.40;19.10
11399;DHT22;5755;48.116;11.608;2023-09-08T11:54:36;28.10;20.10
11399;DHT22;5755;48.116;11.608;2023-09-08T11:57:17;28.20;18.30
11399;DHT22;5755;48.116;11.608;2023-09-08T11:59:46;28.20;19.80
11399;DHT22;5755;48.116;11.608;2023-09-08T12:02:45;28.10;19.90
11399;DHT22;5755;48.116;11.608;2023-09-08T12:05:27;28.30;19.50
11399;DHT22;5755;48.116;11.608;2023-09-08T12:08:16;28.20;18.50
11399;DHT22;5755;48.116;11.608;2023-09-08T12:11:24;28.00;20.50
11399;DHT22;5755;48.116;11.608;2023-09-08T12:14:39;27.80;21.90
11399;DHT22;5755;48.116;11.608;2023-09-08T12:17:14;27.70;21.90
11399;DHT22;5755;48.116;11.608;2023-09-08T12:19:43;27.70;22.20
11399;DHT22;5755;48.116;11.608;2023-09-08T12:22:10;27.80;21.40
11399;DHT22;5755;48.116;11.608;2023-09-08T12:24:48;27.60;21.60
11399;DHT22;5755;48.116;11.608;2023-09-08T12:30:38;27.70;21.60
11399;DHT22;5755;48.116;11.608;2023-09-08T12:33:20;27.80;20.80
11399;DHT22;5755;48.116;11.608;2023-09-08T12:38:39;27.70;20.60
11399;DHT22;5755;48.116;11.608;2023-09-08T12:41:06;27.70;21.70
11399;DHT22;5755;48.116;11.608;2023-09-08T12:43:45;27.70;21.80
11399;DHT22;5755;48.116;11.608;2023-09-08T12:46:26;27.70;21.90
11399;DHT22;5755;48.116;11.608;2023-09-08T12:48:55;27.70;20.80
11399;DHT22;5755;48.116;11.608;2023-09-08T12:51:22;27.70;23.10
11399;DHT22;5755;48.116;11.608;2023-09-08T12:53:49;27.60;22.20
11399;DHT22;5755;48.116;11.608;2023-09-08T12:56:16;27.50;21.30
11399;DHT22;5755;48.116;11.608;2023-09-08T12:58:45;27.50;22.90
11399;DHT22;5755;48.116;11.608;2023-09-08T13:01:12;27.50;21.50
11399;DHT22;5755;48.116;11.608;2023-09-08T13:03:39;27.60;22.30
11399;DHT22;5755;48.116;11.608;2023-09-08T13:06:06;27.60;22.40
11399;DHT22;5755;48.116;11.608;2023-09-08T13:08:33;27.60;21.70
11399;DHT22;5755;48.116;11.608;2023-09-08T13:11:00;27.70;22.00
11399;DHT22;5755;48.116;11.608;2023-09-08T13:13:27;27.50;22.50
11399;DHT22;5755;48.116;11.608;2023-09-08T13:15:56;27.50;22.80
11399;DHT22;5755;48.116;11.608;2023-09-08T13:18:23;27.50;22.80
11399;DHT22;5755;48.116;11.608;2023-09-08T13:20:50;27.50;23.00
11399;DHT22;5755;48.116;11.608;2023-09-08T13:23:17;27.50;23.10
11399;DHT22;5755;48.116;11.608;2023-09-08T13:28:14;27.50;22.90
11399;DHT22;5755;48.116;11.608;2023-09-08T13:30:41;27.50;24.80
11399;DHT22;5755;48.116;11.608;2023-09-08T13:33:09;27.50;23.40
11399;DHT22;5755;48.116;11.608;2023-09-08T13:38:11;27.60;23.00
11399;DHT22;5755;48.116;11.608;2023-09-08T13:40:38;27.50;25.00
11399;DHT22;5755;48.116;11.608;2023-09-08T13:43:06;27.50;24.20
11399;DHT22;5755;48.116;11.608;2023-09-08T13:45:33;27.50;24.10
11399;DHT22;5755;48.116;11.608;2023-09-08T13:48:01;27.40;24.00
11399;DHT22;5755;48.116;11.608;2023-09-08T13:50:31;27.40;24.10
11399;DHT22;5755;48.116;11.608;2023-09-08T13:52:59;27.40;24.10
11399;DHT22;5755;48.116;11.608;2023-09-08T13:55:27;27.40;24.70
11399;DHT22;5755;48.116;11.608;2023-09-08T13:57:53;27.50;24.60
11399;DHT22;5755;48.116;11.608;2023-09-08T14:00:20;27.40;25.00
11399;DHT22;5755;48.116;11.608;2023-09-08T14:02:47;27.40;24.70
11399;DHT22;5755;48.116;11.608;2023-09-08T14:05:14;27.40;25.30
11399;DHT22;5755;48.116;11.608;2023-09-08T14:07:43;27.40;24.70
11399;DHT22;5755;48.116;11.608;2023-09-08T14:10:10;27.40;25.10
11399;DHT22;5755;48.116;11.608;2023-09-08T14:12:36;27.30;25.90
11399;DHT22;5755;48.116;11.608;2023-09-08T14:15:04;27.30;26.40
11399;DHT22;5755;48.116;11.608;2023-09-08T14:17:31;27.10;26.70
11399;DHT22;5755;48.116;11.608;2023-09-08T14:19:58;27.10;25.80
11399;DHT22;5755;48.116;11.608;2023-09-08T14:22:25;27.10;25.80
11399;DHT22;5755;48.116;11.608;2023-09-08T14:24:54;27.10;25.80
11399;DHT22;5755;48.116;11.608;2023-09-08T14:27:34;27.10;25.00
11399;DHT22;5755;48.116;11.608;2023-09-08T14:30:02;27.00;25.30
11399;DHT22;5755;48.116;11.608;2023-09-08T14:32:29;26.90;25.80
11399;DHT22;5755;48.116;11.608;2023-09-08T14:34:56;26.90;25.70
11399;DHT22;5755;48.116;11.608;2023-09-08T14:37:23;26.80;26.70
11399;DHT22;5755;48.116;11.608;2023-09-08T14:39:50;26.90;26.10
11399;DHT22;5755;48.116;11.608;2023-09-08T14:42:19;26.90;25.30
11399;DHT22;5755;48.116;11.608;2023-09-08T14:44:47;27.00;25.70
11399;DHT22;5755;48.116;11.608;2023-09-08T14:47:17;26.90;25.60
11399;DHT22;5755;48.116;11.608;2023-09-08T14:52:14;26.70;26.60
11399;DHT22;5755;48.116;11.608;2023-09-08T14:54:42;26.60;26.60
11399;DHT22;5755;48.116;11.608;2023-09-08T14:57:09;26.50;27.50
11399;DHT22;5755;48.116;11.608;2023-09-08T15:04:57;26.60;26.30
11399;DHT22;5755;48.116;11.608;2023-09-08T15:07:23;26.60;26.50
11399;DHT22;5755;48.116;11.608;2023-09-08T15:09:54;26.60;27.00
11399;DHT22;5755;48.116;11.608;2023-09-08T15:12:34;26.60;27.20
11399;DHT22;5755;48.116;11.608;2023-09-08T15:15:02;26.50;27.10
11399;DHT22;5755;48.116;11.608;2023-09-08T15:17:50;26.40;28.40
11399;DHT22;5755;48.116;11.608;2023-09-08T15:20:20;26.40;28.00
11399;DHT22;5755;48.116;11.608;2023-09-08T15:22:48;26.30;28.30
11399;DHT22;5755;48.116;11.608;2023-09-08T15:25:15;26.30;28.70
11399;DHT22;5755;48.116;11.608;2023-09-08T15:27:43;26.30;28.00
11399;DHT22;5755;48.116;11.608;2023-09-08T15:30:13;26.40;27.70
11399;DHT22;5755;48.116;11.608;2023-09-08T15:32:40;26.30;27.00
11399;DHT22;5755;48.116;11.608;2023-09-08T15:35:08;26.20;27.50
11399;DHT22;5755;48.116;11.608;2023-09-08T15:37:36;26.10;28.80
11399;DHT22;5755;48.116;11.608;2023-09-08T15:40:17;26.20;27.40
11399;DHT22;5755;48.116;11.608;2023-09-08T15:45:13;26.10;28.00
11399;DHT22;5755;48.116;11.608;2023-09-08T15:47:39;25.90;29.40
11399;DHT22;5755;48.116;11.608;2023-09-08T15:55:18;25.80;30.40
11399;DHT22;5755;48.116;11.608;2023-09-08T15:57:45;25.70;30.80
11399;DHT22;5755;48.116;11.608;2023-09-08T16:02:47;25.60;31.30
11399;DHT22;5755;48.116;11.608;2023-09-08T16:05:14;25.60;32.10
11399;DHT22;5755;48.116;11.608;2023-09-08T16:12:54;25.50;38.90
11399;DHT22;5755;48.116;11.608;2023-09-08T16:23:09;25.40;46.60
11399;DHT22;5755;48.116;11.608;2023-09-08T16:25:36;25.30;47.80
11399;DHT22;5755;48.116;11.608;2023-09-08T16:35:50;25.00;55.10
11399;DHT22;5755;48.116;11.608;2023-09-08T16:38:20;24.90;57.60
11399;DHT22;5755;48.116;11.608;2023-09-08T16:40:46;25.00;57.90
11399;DHT22;5755;48.116;11.608;2023-09-08T16:43:15;24.90;59.10
11399;DHT22;5755;48.116;11.608;2023-09-08T16:45:55;24.80;60.40
11399;DHT22;5755;48.116;11.608;2023-09-08T16:48:24;24.70;61.20
11399;DHT22;5755;48.116;11.608;2023-09-08T17:01:13;24.40;76.60
11399;DHT22;5755;48.116;11.608;2023-09-08T17:06:31;24.30;76.30
11399;DHT22;5755;48.116;11.608;2023-09-08T17:14:13;24.00;79.90
11399;DHT22;5755;48.116;11.608;2023-09-08T17:16:43;24.20;77.80
11399;DHT22;5755;48.116;11.608;2023-09-08T17:26:57;23.90;80.10
11399;DHT22;5755;48.116;11.608;2023-09-08T17:54:04;22.60;90.40
11399;DHT22;5755;48.116;11.608;2023-09-08T18:09:43;22.10;91.80
11399;DHT22;5755;48.116;11.608;2023-09-08T18:45:22;21.50;94.10
11399;DHT22;5755;48.116;11.608;2023-09-08T18:48:03;21.50;94.20
11399;DHT22;5755;48.116;11.608;2023-09-08T20:01:31;20.40;97.40
11399;DHT22;5755;48.116;11.608;2023-09-08T20:04:12;20.30;97.70
11399;DHT22;5755;48.116;11.608;2023-09-08T20:06:56;20.30;97.90
11399;DHT22;5755;48.116;11.608;2023-09-08T20:15:11;20.20;97.80
11399;DHT22;5755;48.116;11.608;2023-09-08T20:17:39;20.30;97.30
11399;DHT22;5755;48.116;11.608;2023-09-08T20:23:37;20.00;98.10
11399;DHT22;5755;48.116;11.608;2023-09-08T20:33:14;19.90;98.10
11399;DHT22;5755;48.116;11.608;2023-09-08T20:35:58;19.70;99.00
11399;DHT22;5755;48.116;11.608;2023-09-08T20:52:23;19.00;99.90
11399;DHT22;5755;48.116;11.608;2023-09-08T20:55:05;18.90;99.90
11399;DHT22;5755;48.116;11.608;2023-09-08T20:57:49;18.90;99.90
11399;DHT22;5755;48.116;11.608;2023-09-08T21:03:35;18.80;99.90
11399;DHT22;5755;48.116;11.608;2023-09-08T21:06:18;18.70;99.90
11399;DHT22;5755;48.116;11.608;2023-09-08T21:09:07;18.70;99.90
11399;DHT22;5755;48.116;11.608;2023-09-08T21:12:12;18.70;99.90
11399;DHT22;5755;48.116;11.608;2023-09-08T21:14:53;18.60;99.90
11399;DHT22;5755;48.116;11.608;2023-09-08T21:17:35;18.60;99.90
11399;DHT22;5755;48.116;11.608;2023-09-08T21:20:19;18.50;99.90
11399;DHT22;5755;48.116;11.608;2023-09-08T21:43:14;18.40;99.90
11399;DHT22;5755;48.116;11.608;2023-09-08T21:49:30;18.30;99.90
11399;DHT22;5755;48.116;11.608;2023-09-08T21:55:59;18.20;99.90
11399;DHT22;5755;48.116;11.608;2023-09-08T22:08:40;18.10;99.90
11399;DHT22;5755;48.116;11.608;2023-09-08T22:11:23;18.20;99.90
11399;DHT22;5755;48.116;11.608;2023-09-08T22:14:32;18.10;99.90
